Matinicus, ME (04851)

1:43 PM EST on December 09, 2016 (GMT -0500)
Spruce Head Island | | Change Station

Elev 62 ft 44.00 °N, 69.12 °W | Updated 37 seconds ago

Mostly Cloudy
Mostly Cloudy
31.8 °F
Feels Like 32 °F
N
1.3
Wind Variable Wind from WNW
Gusts 2.5 mph

Today
High -- | Low -- °F
--% Chance of Precip.
Yesterday
High -- | Low -- °F
Precip. -- in
Pressure 29.83 in
Visibility 10.0 miles
Clouds Mostly Cloudy 4800 ft
Windchill 32 °F
Dew Point -2 °F
Humidity 23%
Rainfall 0.00 in
Snow Depth Not available.
6:58 AM 3:57 PM
Waxing Gibbous, 76% visible
METAR KRKD 091756Z AUTO 30013G25KT 280V340 10SM BKN048 M01/M10 A2982 RMK AO2 PK WND 27029/1701 SLP101 T10061100 10000 21028 55002 FZRANO
Pressure 29.83 in
Visibility 10.0 miles
Clouds Mostly Cloudy 4800 ft
Windchill 32 °F
Dew Point -2 °F
Humidity 23%
Rainfall 0.00 in
Snow Depth Not available.
6:58 AM 3:57 PM
Waxing Gibbous, 76% visible
METAR KRKD 091756Z AUTO 30013G25KT 280V340 10SM BKN048 M01/M10 A2982 RMK AO2 PK WND 27029/1701 SLP101 T10061100 10000 21028 55002 FZRANO

10-Day Weather Forecast

Almanac

Astronomy

Dec. 09, 2016 Rise Set
Actual Time
Civil Twilight
Nautical Twilight
Astronomical Twilight
Moon
Length of Visible Light
Length of Day
Tomorrow will be .
, % of the Moon is Illuminated

Today's Extremes

State Highs State Lows

Community

WunderPhotos

Upload Photos

1,956,499 photos uploaded!

WunderBlog® & News

Nearby

Air Quality

  Air Quality AQ Index Pollutant
Not available.

Snow Depth

Station Depth Elevation

Earthquake Activity

City Distance Mag. Time & Date
Minimum magnitude displayed is 2.5.

Coastal Water Temperatures

Place Temperature

Stations

Nearby Weather Stations

Station Location Temp. Windchill Dew Point Humidity Wind Precip. Elev Updated Type
                   

Watches & Warnings

There are currently no watches in effect.